createdAt,value
2018-01-13T00:01:27.669Z,97.60
2018-01-13T00:03:54.212Z,97.60
2018-01-13T00:06:20.860Z,97.50
2018-01-13T00:08:48.298Z,97.10
2018-01-13T00:11:15.494Z,97.20
2018-01-13T00:13:42.030Z,97.10
2018-01-13T00:16:08.544Z,96.80
2018-01-13T00:18:34.852Z,97.40
2018-01-13T00:21:01.922Z,97.30
2018-01-13T00:23:29.197Z,95.80
2018-01-13T00:25:55.625Z,95.80
2018-01-13T00:28:21.977Z,95.90
2018-01-13T00:30:48.425Z,95.40
2018-01-13T00:33:14.712Z,95.70
2018-01-13T00:35:41.118Z,96.20
2018-01-13T00:38:07.636Z,96.90
2018-01-13T00:40:34.213Z,96.70
2018-01-13T00:43:02.142Z,96.20
2018-01-13T00:45:28.608Z,96.00
2018-01-13T00:47:55.098Z,96.40
2018-01-13T00:50:22.375Z,97.30
2018-01-13T00:52:49.741Z,97.30
2018-01-13T00:55:16.741Z,98.40
2018-01-13T00:57:43.445Z,98.40
2018-01-13T01:00:10.549Z,98.10
2018-01-13T01:02:37.561Z,98.00
2018-01-13T01:05:04.743Z,98.30
2018-01-13T01:07:31.845Z,98.30
2018-01-13T01:09:58.332Z,97.70
2018-01-13T01:12:25.089Z,96.80
2018-01-13T01:14:51.492Z,96.40
2018-01-13T01:17:18.029Z,96.70
2018-01-13T01:19:44.270Z,96.00
2018-01-13T01:22:10.520Z,95.00
2018-01-13T01:24:37.639Z,95.20
2018-01-13T01:27:03.896Z,95.20
2018-01-13T01:29:30.152Z,96.00
2018-01-13T01:31:56.399Z,96.60
2018-01-13T01:34:22.725Z,97.70
2018-01-13T01:36:48.990Z,96.90
2018-01-13T01:39:15.254Z,97.40
2018-01-13T01:41:41.524Z,97.60
2018-01-13T01:44:07.786Z,96.40
2018-01-13T01:46:34.027Z,97.00
2018-01-13T01:49:00.281Z,95.90
2018-01-13T01:51:27.276Z,95.70
2018-01-13T01:53:54.269Z,95.30
2018-01-13T01:56:21.250Z,95.10
2018-01-13T01:58:47.501Z,95.10
2018-01-13T02:01:13.753Z,95.50
2018-01-13T02:03:40.022Z,95.60
2018-01-13T02:06:06.268Z,95.10
2018-01-13T02:08:33.262Z,94.80
2018-01-13T02:10:59.539Z,94.70
2018-01-13T02:13:26.524Z,94.80
2018-01-13T02:15:52.768Z,94.80
2018-01-13T02:18:19.774Z,95.10
2018-01-13T02:20:46.027Z,95.10
2018-01-13T02:23:12.276Z,94.70
2018-01-13T02:25:40.237Z,95.20
2018-01-13T02:28:06.512Z,95.00
2018-01-13T02:30:32.785Z,94.80
2018-01-13T02:33:00.141Z,94.90
2018-01-13T02:35:27.124Z,94.70
2018-01-13T02:37:53.380Z,94.70
2018-01-13T02:40:19.634Z,94.30
2018-01-13T02:42:45.964Z,94.40
2018-01-13T02:45:12.196Z,95.60
2018-01-13T02:47:38.449Z,95.90
2018-01-13T02:50:04.703Z,94.90
2018-01-13T02:52:31.160Z,95.90
2018-01-13T02:54:57.709Z,96.90
2018-01-13T02:57:23.973Z,97.50
2018-01-13T02:59:50.968Z,96.00
2018-01-13T03:02:17.212Z,96.00
2018-01-13T03:04:43.468Z,95.70
2018-01-13T03:07:09.705Z,96.90
2018-01-13T03:09:35.988Z,97.30
2018-01-13T03:12:02.229Z,96.60
2018-01-13T03:14:28.465Z,96.70
2018-01-13T03:16:54.722Z,96.10
2018-01-13T03:19:20.965Z,95.60
2018-01-13T03:21:47.977Z,95.00
2018-01-13T03:24:14.233Z,94.60
2018-01-13T03:26:40.497Z,95.30
2018-01-13T03:29:06.721Z,95.30
2018-01-13T03:31:33.080Z,96.50
2018-01-13T03:33:59.376Z,95.70
2018-01-13T03:36:25.728Z,95.10
2018-01-13T03:38:52.428Z,95.10
2018-01-13T03:41:18.634Z,94.50
2018-01-13T03:43:45.677Z,94.70
2018-01-13T03:46:12.241Z,94.70
2018-01-13T03:48:39.253Z,93.50
2018-01-13T03:51:05.490Z,93.50
2018-01-13T03:53:31.708Z,94.70
2018-01-13T03:55:57.932Z,94.50
2018-01-13T03:58:24.182Z,93.70
2018-01-13T04:00:50.416Z,94.10
2018-01-13T04:03:16.876Z,94.70
2018-01-13T04:05:43.129Z,94.40
2018-01-13T04:08:10.113Z,94.70
2018-01-13T04:10:36.357Z,94.60
2018-01-13T04:13:02.590Z,94.60
2018-01-13T04:15:29.772Z,94.70
2018-01-13T04:17:56.010Z,94.70
2018-01-13T04:20:22.252Z,94.20
2018-01-13T04:22:48.601Z,94.20
2018-01-13T04:25:14.842Z,94.00
2018-01-13T04:27:41.076Z,93.90
2018-01-13T04:30:07.316Z,94.70
2018-01-13T04:32:33.778Z,94.20
2018-01-13T04:35:00.259Z,94.30
2018-01-13T04:37:26.490Z,94.40
2018-01-13T04:39:56.596Z,94.30
2018-01-13T04:42:22.836Z,94.50
2018-01-13T04:44:49.121Z,94.70
2018-01-13T04:47:16.208Z,93.50
2018-01-13T04:49:42.469Z,93.50
2018-01-13T04:52:08.732Z,93.90
2018-01-13T04:54:35.140Z,93.40
2018-01-13T04:57:01.937Z,94.00
2018-01-13T04:59:28.241Z,93.70
2018-01-13T05:01:54.497Z,93.50
2018-01-13T05:04:20.753Z,93.90
2018-01-13T05:06:47.001Z,93.30
2018-01-13T05:09:13.275Z,93.60
2018-01-13T05:11:40.273Z,93.70
2018-01-13T05:14:06.552Z,93.70
2018-01-13T05:16:32.820Z,93.40
2018-01-13T05:18:59.820Z,92.80
2018-01-13T05:21:26.199Z,92.80
2018-01-13T05:23:52.449Z,92.70
2018-01-13T05:26:18.687Z,92.50
2018-01-13T05:28:44.928Z,92.50
2018-01-13T05:31:11.486Z,92.30
2018-01-13T05:33:37.741Z,92.10
2018-01-13T05:36:04.081Z,91.90
2018-01-13T05:38:31.085Z,91.70
2018-01-13T05:40:57.357Z,91.60
2018-01-13T05:43:23.568Z,91.50
2018-01-13T05:45:49.848Z,91.70
2018-01-13T05:48:16.412Z,91.70
2018-01-13T05:50:43.397Z,91.80
2018-01-13T05:53:09.670Z,91.50
2018-01-13T05:55:35.940Z,91.60
2018-01-13T05:58:02.177Z,91.50
2018-01-13T06:00:28.421Z,91.50
2018-01-13T06:02:54.642Z,91.80
2018-01-13T06:05:20.872Z,92.10
2018-01-13T06:07:47.111Z,91.90
2018-01-13T06:10:13.321Z,91.90
2018-01-13T06:12:39.541Z,91.80
2018-01-13T06:15:06.509Z,91.90
2018-01-13T06:17:33.480Z,92.00
2018-01-13T06:19:59.717Z,92.00
2018-01-13T06:22:25.964Z,91.90
2018-01-13T06:24:52.192Z,91.80
2018-01-13T06:27:19.170Z,92.60
2018-01-13T06:29:45.421Z,92.70
2018-01-13T06:32:11.655Z,92.50
2018-01-13T06:34:37.919Z,93.30
2018-01-13T06:37:04.172Z,93.90
2018-01-13T06:39:30.513Z,93.90
2018-01-13T06:41:57.495Z,94.60
2018-01-13T06:44:24.460Z,94.10
2018-01-13T06:46:51.420Z,93.40
2018-01-13T06:49:17.947Z,93.40
2018-01-13T06:51:44.223Z,93.40
2018-01-13T06:54:11.246Z,92.70
2018-01-13T06:56:38.025Z,92.70
2018-01-13T06:59:04.862Z,92.40
2018-01-13T07:01:31.145Z,93.60
2018-01-13T07:03:58.996Z,93.40
2018-01-13T07:06:25.209Z,93.10
2018-01-13T07:08:52.177Z,93.30
2018-01-13T07:11:18.409Z,93.30
2018-01-13T07:13:47.240Z,93.60
2018-01-13T07:16:14.208Z,94.30
2018-01-13T07:18:41.185Z,94.50
2018-01-13T07:21:07.668Z,94.50
2018-01-13T07:23:34.086Z,94.30
2018-01-13T07:26:00.316Z,94.40
2018-01-13T07:28:26.700Z,94.20
2018-01-13T07:30:54.417Z,93.90
2018-01-13T07:33:21.553Z,93.90
2018-01-13T07:35:48.557Z,93.60
2018-01-13T07:38:14.784Z,93.60
2018-01-13T07:40:41.063Z,93.30
2018-01-13T07:43:07.312Z,93.00
2018-01-13T07:45:33.711Z,93.20
2018-01-13T07:47:59.971Z,92.70
2018-01-13T07:50:26.295Z,92.20
2018-01-13T07:52:52.547Z,91.60
2018-01-13T07:55:18.855Z,92.10
2018-01-13T07:57:45.176Z,92.10
2018-01-13T08:00:11.433Z,92.00
2018-01-13T08:02:37.689Z,91.70
2018-01-13T08:05:04.681Z,91.50
2018-01-13T08:07:31.304Z,91.50
2018-01-13T08:09:57.758Z,91.50
2018-01-13T08:12:24.321Z,91.50
2018-01-13T08:14:50.616Z,90.80
2018-01-13T08:17:17.026Z,90.70
2018-01-13T08:19:43.290Z,89.80
2018-01-13T08:22:09.534Z,90.00
2018-01-13T08:24:35.808Z,90.00
2018-01-13T08:27:02.798Z,89.20
2018-01-13T08:29:29.977Z,89.20
2018-01-13T08:31:56.158Z,89.80
2018-01-13T08:34:23.177Z,89.70
2018-01-13T08:36:50.197Z,89.50
2018-01-13T08:39:16.576Z,89.70
2018-01-13T08:41:42.855Z,89.30
2018-01-13T08:44:09.103Z,87.70
2018-01-13T08:46:36.104Z,86.60
2018-01-13T08:49:02.358Z,86.60
2018-01-13T08:51:28.645Z,87.40
2018-01-13T08:53:54.990Z,86.60
2018-01-13T08:56:22.053Z,85.30
2018-01-13T08:58:49.064Z,85.30
2018-01-13T09:01:18.216Z,85.30
2018-01-13T09:03:44.505Z,84.80
2018-01-13T09:06:10.740Z,84.60
2018-01-13T09:08:37.032Z,84.10
2018-01-13T09:11:03.252Z,83.60
2018-01-13T09:13:30.346Z,86.30
2018-01-13T09:15:57.393Z,85.00
2018-01-13T09:18:23.729Z,84.90
2018-01-13T09:20:49.987Z,84.10
2018-01-13T09:23:16.984Z,83.30
2018-01-13T09:25:44.030Z,83.30
2018-01-13T09:28:10.400Z,83.50
2018-01-13T09:30:36.622Z,83.20
2018-01-13T09:33:02.920Z,82.90
2018-01-13T09:35:29.204Z,83.30
2018-01-13T09:37:55.382Z,84.60
2018-01-13T09:40:21.612Z,83.20
2018-01-13T09:42:47.862Z,83.30
2018-01-13T09:45:14.164Z,83.70
2018-01-13T09:47:41.250Z,81.50
2018-01-13T09:50:07.497Z,81.40
2018-01-13T09:52:34.545Z,80.20
2018-01-13T09:55:00.853Z,80.20
2018-01-13T09:57:27.856Z,78.90
2018-01-13T09:59:54.396Z,78.90
2018-01-13T10:02:20.690Z,79.90
2018-01-13T10:04:47.242Z,77.90
2018-01-13T10:07:13.520Z,77.90
2018-01-13T10:09:40.578Z,73.70
2018-01-13T10:12:06.895Z,73.80
2018-01-13T10:14:33.897Z,74.70
2018-01-13T10:17:00.144Z,74.60
2018-01-13T10:19:26.560Z,75.70
2018-01-13T10:21:52.919Z,76.70
2018-01-13T10:24:20.788Z,76.30
2018-01-13T10:26:47.047Z,76.30
2018-01-13T10:29:13.156Z,77.50
2018-01-13T10:31:39.427Z,74.00
2018-01-13T10:34:05.814Z,73.80
2018-01-13T10:36:32.089Z,73.90
2018-01-13T10:38:58.368Z,73.50
2018-01-13T10:41:25.366Z,73.20
2018-01-13T10:43:51.679Z,72.50
2018-01-13T10:46:17.714Z,73.40
2018-01-13T10:48:43.760Z,72.90
2018-01-13T10:51:10.029Z,76.10
2018-01-13T10:53:36.259Z,74.80
2018-01-13T10:56:02.501Z,72.00
2018-01-13T10:58:28.725Z,74.10
2018-01-13T11:00:54.744Z,70.90
2018-01-13T11:03:20.783Z,68.50
2018-01-13T11:05:47.096Z,69.30
2018-01-13T11:08:13.374Z,66.00
2018-01-13T11:10:40.076Z,64.30
2018-01-13T11:13:06.307Z,65.30
2018-01-13T11:15:33.289Z,66.40
2018-01-13T11:17:59.534Z,66.30
2018-01-13T11:20:25.780Z,61.60
2018-01-13T11:22:52.021Z,60.80
2018-01-13T11:25:18.254Z,64.50
2018-01-13T11:27:45.540Z,62.10
2018-01-13T11:30:11.657Z,62.00
2018-01-13T11:32:37.873Z,64.10
2018-01-13T11:35:04.653Z,64.10
2018-01-13T11:37:30.672Z,64.10
2018-01-13T11:39:57.444Z,66.40
2018-01-13T11:42:23.690Z,66.10
2018-01-13T11:44:49.724Z,66.90
2018-01-13T11:47:15.772Z,66.20
2018-01-13T11:49:42.051Z,62.50
2018-01-13T11:52:08.328Z,61.40
2018-01-13T11:54:34.732Z,61.30
2018-01-13T11:57:00.944Z,58.00
2018-01-13T11:59:27.586Z,59.40
2018-01-13T12:01:53.647Z,58.90
2018-01-13T12:04:19.672Z,59.60
2018-01-13T12:06:45.925Z,60.40
2018-01-13T12:09:12.228Z,58.00
2018-01-13T12:11:38.790Z,57.80
2018-01-13T12:14:05.021Z,59.10
2018-01-13T12:16:31.268Z,58.80
2018-01-13T12:18:58.246Z,61.30
2018-01-13T12:21:24.480Z,61.30
2018-01-13T12:23:50.754Z,59.20
2018-01-13T12:26:16.976Z,59.10
2018-01-13T12:28:43.217Z,56.30
2018-01-13T12:31:09.543Z,58.60
2018-01-13T12:33:35.824Z,58.60
2018-01-13T12:36:02.830Z,57.50
2018-01-13T12:38:29.037Z,57.50
2018-01-13T12:40:55.913Z,55.50
2018-01-13T12:43:22.996Z,53.90
2018-01-13T12:45:49.274Z,53.80
2018-01-13T12:48:15.538Z,54.00
2018-01-13T12:50:41.832Z,54.20
2018-01-13T12:53:08.840Z,54.20
2018-01-13T12:55:35.681Z,56.10
2018-01-13T12:58:02.491Z,54.80
2018-01-13T13:00:28.817Z,54.70
2018-01-13T13:02:55.101Z,54.10
2018-01-13T13:05:21.636Z,55.30
2018-01-13T13:07:47.904Z,55.50
2018-01-13T13:10:14.341Z,53.00
2018-01-13T13:12:40.664Z,53.30
2018-01-13T13:15:06.960Z,51.90
2018-01-13T13:17:33.235Z,53.20
2018-01-13T13:19:59.598Z,53.10
2018-01-13T13:22:26.607Z,53.30
2018-01-13T13:24:52.920Z,53.30
2018-01-13T13:27:19.010Z,53.40
2018-01-13T13:29:46.814Z,53.90
2018-01-13T13:32:13.636Z,49.00
2018-01-13T13:34:40.432Z,47.40
2018-01-13T13:37:06.481Z,47.40
2018-01-13T13:39:32.864Z,49.70
2018-01-13T13:41:59.141Z,51.60
2018-01-13T13:44:25.392Z,50.30
2018-01-13T13:46:57.928Z,50.50
2018-01-13T13:49:24.193Z,51.80
2018-01-13T13:51:50.474Z,53.20
2018-01-13T13:54:16.730Z,52.40
2018-01-13T13:56:42.988Z,51.40
2018-01-13T13:59:10.007Z,50.30
2018-01-13T14:01:36.277Z,50.50
2018-01-13T14:04:02.683Z,51.30
2018-01-13T14:06:28.949Z,50.10
2018-01-13T14:08:55.212Z,52.10
2018-01-13T14:11:21.273Z,49.80
2018-01-13T14:13:48.061Z,52.00
2018-01-13T14:16:14.693Z,52.20
2018-01-13T14:18:46.061Z,52.20
2018-01-13T14:21:12.359Z,52.70
2018-01-13T14:23:39.356Z,52.60
2018-01-13T14:26:05.637Z,52.70
2018-01-13T14:28:31.903Z,54.40
2018-01-13T14:30:58.906Z,54.60
2018-01-13T14:33:25.160Z,53.90
2018-01-13T14:35:51.400Z,55.00
2018-01-13T14:38:21.142Z,56.10
2018-01-13T14:40:47.191Z,55.30
2018-01-13T14:43:13.228Z,54.40
2018-01-13T14:45:39.274Z,54.20
2018-01-13T14:48:05.296Z,54.40
2018-01-13T14:50:31.337Z,56.30
2018-01-13T14:52:57.389Z,53.80
2018-01-13T14:55:23.425Z,53.30
2018-01-13T14:57:49.491Z,53.20
2018-01-13T15:00:19.073Z,55.20
2018-01-13T15:02:45.142Z,54.90
2018-01-13T15:05:11.924Z,57.40
2018-01-13T15:07:38.018Z,57.30
2018-01-13T15:10:04.277Z,57.70
2018-01-13T15:12:30.688Z,56.10
2018-01-13T15:14:56.902Z,55.30
2018-01-13T15:17:23.145Z,56.60
2018-01-13T15:19:52.489Z,56.30
2018-01-13T15:22:19.451Z,56.60
2018-01-13T15:24:45.685Z,56.80
2018-01-13T15:27:12.661Z,56.20
2018-01-13T15:29:39.260Z,56.20
2018-01-13T15:32:05.692Z,55.90
2018-01-13T15:34:31.750Z,56.10
2018-01-13T15:36:57.813Z,57.20
2018-01-13T15:39:26.436Z,56.80
2018-01-13T15:41:52.485Z,56.40
2018-01-13T15:44:19.281Z,55.40
2018-01-13T15:46:45.565Z,56.00
2018-01-13T15:49:11.805Z,55.70
2018-01-13T15:51:38.076Z,56.00
2018-01-13T15:54:04.366Z,56.60
2018-01-13T15:56:30.489Z,55.90
2018-01-13T15:59:01.069Z,55.80
2018-01-13T16:01:27.148Z,56.80
2018-01-13T16:03:53.529Z,55.30
2018-01-13T16:06:19.837Z,56.10
2018-01-13T16:08:46.097Z,55.30
2018-01-13T16:11:12.369Z,57.40
2018-01-13T16:13:38.725Z,56.70
2018-01-13T16:16:10.160Z,57.60
2018-01-13T16:18:36.429Z,57.70
2018-01-13T16:21:02.701Z,55.80
2018-01-13T16:23:29.120Z,57.50
2018-01-13T16:25:55.399Z,57.00
2018-01-13T16:28:21.657Z,57.50
2018-01-13T16:30:48.293Z,56.50
2018-01-13T16:33:14.385Z,56.50
2018-01-13T16:35:42.080Z,58.20
2018-01-13T16:38:08.867Z,59.30
2018-01-13T16:40:35.004Z,59.40
2018-01-13T16:43:01.281Z,59.60
2018-01-13T16:45:28.315Z,61.30
2018-01-13T16:47:55.337Z,61.00
2018-01-13T16:50:21.674Z,60.90
2018-01-13T16:52:50.312Z,59.40
2018-01-13T16:55:16.578Z,58.00
2018-01-13T16:57:43.574Z,61.00
2018-01-13T17:00:09.628Z,60.80
2018-01-13T17:02:35.949Z,61.20
2018-01-13T17:05:02.228Z,60.70
2018-01-13T17:07:28.617Z,61.30
2018-01-13T17:09:54.892Z,61.70
2018-01-13T17:12:24.469Z,61.10
2018-01-13T17:14:50.712Z,60.80
2018-01-13T17:17:17.033Z,60.70
2018-01-13T17:19:43.302Z,60.30
2018-01-13T17:22:09.569Z,60.10
2018-01-13T17:24:35.612Z,60.30
2018-01-13T17:27:01.682Z,60.30
2018-01-13T17:29:27.746Z,60.00
2018-01-13T17:32:01.306Z,60.30
2018-01-13T17:34:27.370Z,60.30
2018-01-13T17:36:53.457Z,60.30
2018-01-13T17:39:20.296Z,59.60
2018-01-13T17:41:46.337Z,59.60
2018-01-13T17:44:12.381Z,59.10
2018-01-13T17:46:38.628Z,60.00
2018-01-13T17:49:07.712Z,60.40
2018-01-13T17:51:33.952Z,60.70
2018-01-13T17:54:00.212Z,60.90
2018-01-13T17:56:26.590Z,61.50
2018-01-13T17:58:52.860Z,60.90
2018-01-13T18:01:19.158Z,61.60
2018-01-13T18:03:46.241Z,59.70
2018-01-13T18:06:12.565Z,59.70
2018-01-13T18:08:39.410Z,59.80
2018-01-13T18:11:05.457Z,60.00
2018-01-13T18:13:31.548Z,61.40
2018-01-13T18:15:57.616Z,60.50
2018-01-13T18:18:23.674Z,61.50
2018-01-13T18:20:49.894Z,61.20
2018-01-13T18:23:15.946Z,61.40
2018-01-13T18:25:42.198Z,62.00
2018-01-13T18:28:09.072Z,62.70
2018-01-13T18:30:35.427Z,63.10
2018-01-13T18:33:01.632Z,61.50
2018-01-13T18:35:27.997Z,61.90
2018-01-13T18:37:54.244Z,62.80
2018-01-13T18:40:20.493Z,61.50
2018-01-13T18:42:46.709Z,61.70
2018-01-13T18:45:13.732Z,64.30
2018-01-13T18:47:39.981Z,64.20
2018-01-13T18:50:06.220Z,64.00
2018-01-13T18:52:32.443Z,64.20
2018-01-13T18:54:58.497Z,64.60
2018-01-13T18:57:24.752Z,64.00
2018-01-13T18:59:51.709Z,63.80
2018-01-13T19:02:18.576Z,63.80
2018-01-13T19:04:45.590Z,61.80
2018-01-13T19:07:11.829Z,61.80
2018-01-13T19:09:38.102Z,60.60
2018-01-13T19:12:04.441Z,60.60
2018-01-13T19:14:30.845Z,61.60
2018-01-13T19:16:57.061Z,61.50
2018-01-13T19:19:23.309Z,63.50
2018-01-13T19:21:49.532Z,61.50
2018-01-13T19:24:15.782Z,61.50
2018-01-13T19:26:42.077Z,60.90
2018-01-13T19:29:08.724Z,62.10
2018-01-13T19:31:35.098Z,62.30
2018-01-13T19:34:02.076Z,62.50
2018-01-13T19:36:28.354Z,62.40
2018-01-13T19:38:54.602Z,62.80
2018-01-13T19:41:22.094Z,61.10
2018-01-13T19:43:49.027Z,60.00
2018-01-13T19:46:15.275Z,60.00
2018-01-13T19:48:42.777Z,61.60
2018-01-13T19:51:09.896Z,60.80
2018-01-13T19:53:36.124Z,60.80
2018-01-13T19:56:02.773Z,61.10
2018-01-13T19:58:29.025Z,61.20
2018-01-13T20:00:55.278Z,60.00
2018-01-13T20:03:21.803Z,61.60
2018-01-13T20:05:48.043Z,61.50
2018-01-13T20:08:14.298Z,61.30
2018-01-13T20:10:41.085Z,60.40
2018-01-13T20:13:07.882Z,60.30
2018-01-13T20:15:34.270Z,60.30
2018-01-13T20:18:00.501Z,59.80
2018-01-13T20:20:26.637Z,59.80
2018-01-13T20:22:52.689Z,58.60
2018-01-13T20:25:18.925Z,59.40
2018-01-13T20:27:45.170Z,61.60
2018-01-13T20:30:12.153Z,60.30
2018-01-13T20:32:38.524Z,60.30
2018-01-13T20:35:04.777Z,59.60
2018-01-13T20:37:31.035Z,60.20
2018-01-13T20:39:57.270Z,60.10
2018-01-13T20:42:23.566Z,58.70
2018-01-13T20:44:49.600Z,60.10
2018-01-13T20:47:16.645Z,59.40
2018-01-13T20:49:42.957Z,59.40
2018-01-13T20:52:09.225Z,61.60
2018-01-13T20:54:36.220Z,60.20
2018-01-13T20:57:02.477Z,60.10
2018-01-13T20:59:28.740Z,60.50
2018-01-13T21:01:55.025Z,61.60
2018-01-13T21:04:21.285Z,59.70
2018-01-13T21:06:47.552Z,59.90
2018-01-13T21:09:13.816Z,59.30
2018-01-13T21:11:41.066Z,59.60
2018-01-13T21:14:08.097Z,60.50
2018-01-13T21:16:34.332Z,60.40
2018-01-13T21:19:00.601Z,59.60
2018-01-13T21:21:27.717Z,57.70
2018-01-13T21:23:53.989Z,57.70
2018-01-13T21:26:20.259Z,58.40
2018-01-13T21:28:47.226Z,59.70
2018-01-13T21:31:13.477Z,59.80
2018-01-13T21:33:40.472Z,59.60
2018-01-13T21:36:06.772Z,59.60
2018-01-13T21:38:33.033Z,59.80
2018-01-13T21:41:00.053Z,61.50
2018-01-13T21:43:26.176Z,61.40
2018-01-13T21:45:52.193Z,61.50
2018-01-13T21:48:18.429Z,60.60
2018-01-13T21:50:44.818Z,57.90
2018-01-13T21:53:11.042Z,60.50
2018-01-13T21:55:37.305Z,59.60
2018-01-13T21:58:03.972Z,59.90
2018-01-13T22:00:30.251Z,59.90
2018-01-13T22:02:56.686Z,58.40
2018-01-13T22:05:23.329Z,58.60
2018-01-13T22:07:50.347Z,60.70
2018-01-13T22:10:16.588Z,60.60
2018-01-13T22:12:42.861Z,61.40
2018-01-13T22:15:09.890Z,60.50
2018-01-13T22:17:36.266Z,60.50
2018-01-13T22:20:03.554Z,61.50
2018-01-13T22:22:30.545Z,60.50
2018-01-13T22:24:57.313Z,61.50
2018-01-13T22:27:23.447Z,61.50
2018-01-13T22:29:50.618Z,63.00
2018-01-13T22:32:16.873Z,63.00
2018-01-13T22:34:43.857Z,61.60
2018-01-13T22:37:10.148Z,61.60
2018-01-13T22:39:36.425Z,60.60
2018-01-13T22:42:02.706Z,61.50
2018-01-13T22:44:28.728Z,61.70
2018-01-13T22:46:55.040Z,61.80
2018-01-13T22:49:21.749Z,62.30
2018-01-13T22:51:48.000Z,61.70
2018-01-13T22:54:15.097Z,61.70
2018-01-13T22:56:42.136Z,62.20
2018-01-13T22:59:08.648Z,62.20
2018-01-13T23:01:34.919Z,62.60
2018-01-13T23:04:01.573Z,61.50
2018-01-13T23:06:27.624Z,61.50
2018-01-13T23:08:54.465Z,63.10
2018-01-13T23:11:20.589Z,63.10
2018-01-13T23:13:46.725Z,62.90
2018-01-13T23:16:12.864Z,63.80
2018-01-13T23:18:39.015Z,62.70
2018-01-13T23:21:05.157Z,63.50
2018-01-13T23:23:31.989Z,62.50
2018-01-13T23:25:58.017Z,62.40
2018-01-13T23:28:24.045Z,63.60
2018-01-13T23:30:50.069Z,64.90
2018-01-13T23:33:16.353Z,65.90
2018-01-13T23:35:42.972Z,66.10
2018-01-13T23:38:09.205Z,66.40
2018-01-13T23:40:35.465Z,65.00
2018-01-13T23:43:02.544Z,66.50
2018-01-13T23:45:28.809Z,66.80
2018-01-13T23:47:55.830Z,65.10
2018-01-13T23:50:22.305Z,65.00
2018-01-13T23:52:49.616Z,65.70
2018-01-13T23:55:15.664Z,65.60
2018-01-13T23:57:41.905Z,66.30
